createdAt,value
2023-03-26T00:02:05.701Z,9.40
2023-03-26T00:04:34.609Z,9.40
2023-03-26T00:07:03.181Z,9.40
2023-03-26T00:09:31.270Z,9.30
2023-03-26T00:12:00.811Z,9.10
2023-03-26T00:14:30.118Z,8.80
2023-03-26T00:16:58.196Z,8.70
2023-03-26T00:19:27.898Z,8.70
2023-03-26T00:21:57.741Z,8.60
2023-03-26T00:24:29.492Z,8.70
2023-03-26T00:26:57.572Z,8.70
2023-03-26T00:29:27.918Z,8.90
2023-03-26T00:31:55.911Z,9.10
2023-03-26T00:34:24.981Z,9.10
2023-03-26T00:36:54.682Z,8.80
2023-03-26T00:39:24.029Z,8.60
2023-03-26T00:41:54.520Z,8.50
2023-03-26T00:44:22.985Z,8.50
2023-03-26T00:46:52.673Z,8.40
2023-03-26T00:49:20.685Z,8.30
2023-03-26T00:51:48.672Z,8.50
2023-03-26T00:54:16.674Z,8.60
2023-03-26T00:56:44.720Z,8.80
2023-03-26T00:59:12.705Z,8.70
2023-03-26T01:01:40.789Z,8.30
2023-03-26T01:04:30.736Z,8.20
2023-03-26T01:07:02.823Z,8.10
2023-03-26T01:09:35.539Z,8.00
2023-03-26T01:12:08.139Z,7.90
2023-03-26T01:14:36.723Z,7.90
2023-03-26T01:17:07.298Z,8.00
2023-03-26T01:19:43.182Z,8.20
2023-03-26T01:22:14.733Z,8.30
2023-03-26T01:24:46.248Z,8.20
2023-03-26T01:27:24.392Z,8.20
2023-03-26T01:29:55.735Z,7.90
2023-03-26T01:32:34.435Z,8.10
2023-03-26T01:35:14.096Z,8.20
2023-03-26T01:37:52.851Z,8.40
2023-03-26T01:40:29.406Z,8.60
2023-03-26T01:43:03.886Z,8.80
2023-03-26T01:45:35.387Z,8.70
2023-03-26T01:48:04.128Z,8.20
2023-03-26T01:50:32.148Z,7.90
2023-03-26T01:53:00.225Z,7.90
2023-03-26T01:55:31.909Z,7.70
2023-03-26T01:58:04.646Z,7.40
2023-03-26T02:00:33.738Z,7.40
2023-03-26T02:03:06.199Z,7.30
2023-03-26T02:05:36.060Z,7.30
2023-03-26T02:08:09.560Z,7.20
2023-03-26T02:10:41.616Z,7.20
2023-03-26T02:13:09.453Z,7.10
2023-03-26T02:15:37.362Z,7.20
2023-03-26T02:18:05.244Z,7.30
2023-03-26T02:20:33.036Z,7.20
2023-03-26T02:23:00.958Z,7.10
2023-03-26T02:25:28.826Z,6.90
2023-03-26T02:27:57.960Z,6.90
2023-03-26T02:30:26.709Z,6.80
2023-03-26T02:32:54.583Z,6.80
2023-03-26T02:35:22.899Z,6.90
2023-03-26T02:37:51.850Z,6.70
2023-03-26T02:40:21.250Z,6.70
2023-03-26T02:42:49.525Z,6.60
2023-03-26T02:45:18.734Z,6.80
2023-03-26T02:47:46.603Z,6.80
2023-03-26T02:50:14.652Z,6.70
2023-03-26T02:52:45.377Z,6.80
2023-03-26T02:55:13.163Z,6.80
2023-03-26T02:57:41.301Z,6.80
2023-03-26T03:00:11.856Z,6.70
2023-03-26T03:02:41.300Z,6.70
2023-03-26T03:05:09.571Z,6.70
2023-03-26T03:07:38.638Z,6.50
2023-03-26T03:10:08.673Z,6.60
2023-03-26T03:12:36.761Z,6.60
2023-03-26T03:15:04.739Z,6.50
2023-03-26T03:17:32.586Z,6.40
2023-03-26T03:20:01.971Z,6.50
2023-03-26T03:22:29.783Z,6.60
2023-03-26T03:24:59.932Z,6.50
2023-03-26T03:27:27.795Z,6.50
2023-03-26T03:29:55.900Z,6.40
2023-03-26T03:32:24.097Z,6.30
2023-03-26T03:34:52.141Z,6.40
2023-03-26T03:37:21.432Z,6.50
2023-03-26T03:39:49.229Z,6.40
2023-03-26T03:42:17.060Z,6.40
2023-03-26T03:44:45.055Z,6.40
2023-03-26T03:47:13.854Z,6.40
2023-03-26T03:49:41.814Z,6.40
2023-03-26T03:52:09.575Z,6.40
2023-03-26T03:54:38.834Z,6.40
2023-03-26T03:57:06.664Z,6.40
2023-03-26T03:59:34.535Z,6.50
2023-03-26T04:02:02.694Z,6.30
2023-03-26T04:04:30.690Z,6.40
2023-03-26T04:06:58.550Z,6.30
2023-03-26T04:09:26.442Z,6.40
2023-03-26T04:11:55.626Z,6.40
2023-03-26T04:14:23.410Z,6.50
2023-03-26T04:16:51.297Z,6.40
2023-03-26T04:19:19.102Z,6.50
2023-03-26T04:21:47.247Z,6.70
2023-03-26T04:24:15.003Z,7.00
2023-03-26T04:26:42.789Z,7.20
2023-03-26T04:29:17.252Z,7.10
2023-03-26T04:31:47.188Z,7.10
2023-03-26T04:34:18.739Z,6.80
2023-03-26T04:36:46.761Z,6.70
2023-03-26T04:39:14.564Z,6.50
2023-03-26T04:41:42.397Z,6.50
2023-03-26T04:44:10.163Z,6.30
2023-03-26T04:46:43.730Z,6.20
2023-03-26T04:49:11.605Z,6.40
2023-03-26T04:51:41.935Z,6.60
2023-03-26T04:54:12.803Z,6.60
2023-03-26T04:56:44.115Z,6.70
2023-03-26T04:59:15.021Z,6.70
2023-03-26T05:01:46.120Z,6.60
2023-03-26T05:04:14.466Z,6.50
2023-03-26T05:06:43.101Z,6.60
2023-03-26T05:09:11.682Z,6.50
2023-03-26T05:11:39.642Z,6.40
2023-03-26T05:14:07.601Z,6.50
2023-03-26T05:16:37.320Z,6.60
2023-03-26T05:19:07.083Z,6.60
2023-03-26T05:21:35.154Z,6.70
2023-03-26T05:24:03.677Z,6.80
2023-03-26T05:26:31.642Z,6.90
2023-03-26T05:28:59.690Z,7.00
2023-03-26T05:31:28.150Z,7.10
2023-03-26T05:33:56.933Z,7.00
2023-03-26T05:36:26.526Z,6.90
2023-03-26T05:38:54.484Z,7.00
2023-03-26T05:41:22.433Z,7.00
2023-03-26T05:43:51.237Z,6.90
2023-03-26T05:46:20.395Z,7.00
2023-03-26T05:48:48.476Z,7.00
2023-03-26T05:51:16.999Z,6.90
2023-03-26T05:53:46.404Z,7.00
2023-03-26T05:56:14.579Z,7.00
2023-03-26T05:58:43.642Z,7.10
2023-03-26T06:01:16.997Z,7.20
2023-03-26T06:03:47.077Z,7.20
2023-03-26T06:06:16.898Z,7.20
2023-03-26T06:08:48.886Z,7.30
2023-03-26T06:11:31.074Z,7.50
2023-03-26T06:13:59.180Z,7.70
2023-03-26T06:16:28.218Z,7.80
2023-03-26T06:18:57.301Z,7.90
2023-03-26T06:21:25.764Z,8.00
2023-03-26T06:23:55.708Z,7.80
2023-03-26T06:26:23.941Z,7.70
2023-03-26T06:28:51.880Z,7.70
2023-03-26T06:31:20.206Z,7.80
2023-03-26T06:33:48.882Z,7.80
2023-03-26T06:36:16.943Z,8.00
2023-03-26T06:38:45.657Z,8.20
2023-03-26T06:41:15.432Z,8.40
2023-03-26T06:43:43.450Z,8.60
2023-03-26T06:46:11.937Z,8.70
2023-03-26T06:48:42.060Z,8.80
2023-03-26T06:51:10.663Z,8.90
2023-03-26T06:53:38.756Z,8.90
2023-03-26T06:56:09.121Z,9.00
2023-03-26T06:58:38.672Z,9.00
2023-03-26T07:01:07.322Z,9.10
2023-03-26T07:03:35.504Z,9.10
2023-03-26T07:06:03.606Z,9.10
2023-03-26T07:08:31.960Z,9.20
2023-03-26T07:11:00.006Z,9.20
2023-03-26T07:13:27.955Z,9.20
2023-03-26T07:15:57.289Z,9.20
2023-03-26T07:18:25.411Z,9.20
2023-03-26T07:20:54.805Z,9.30
2023-03-26T07:23:23.493Z,9.20
2023-03-26T07:25:52.281Z,9.10
2023-03-26T07:28:26.749Z,9.00
2023-03-26T07:31:04.110Z,8.90
2023-03-26T07:33:38.368Z,8.90
2023-03-26T07:36:18.172Z,8.80
2023-03-26T07:39:04.784Z,8.90
2023-03-26T07:41:41.781Z,9.00
2023-03-26T07:44:28.809Z,9.10
2023-03-26T07:46:59.921Z,9.20
2023-03-26T07:49:30.297Z,9.30
2023-03-26T07:51:58.976Z,9.40
2023-03-26T07:54:27.474Z,9.40
2023-03-26T07:57:00.046Z,9.50
2023-03-26T07:59:34.341Z,9.50
2023-03-26T08:02:25.006Z,9.50
2023-03-26T08:05:10.565Z,9.50
2023-03-26T08:07:52.820Z,9.60
2023-03-26T08:10:27.121Z,9.50
2023-03-26T08:13:03.637Z,9.60
2023-03-26T08:15:39.273Z,9.60
2023-03-26T08:18:21.817Z,9.80
2023-03-26T08:20:54.394Z,9.80
2023-03-26T08:23:28.994Z,9.80
2023-03-26T08:26:02.567Z,9.80
2023-03-26T08:28:55.290Z,9.80
2023-03-26T08:31:33.396Z,10.00
2023-03-26T08:34:03.208Z,10.10
2023-03-26T08:36:31.236Z,10.20
2023-03-26T08:39:00.073Z,10.30
2023-03-26T08:42:13.325Z,10.40
2023-03-26T08:45:13.075Z,10.50
2023-03-26T08:48:14.732Z,10.60
2023-03-26T08:51:10.620Z,10.80
2023-03-26T08:54:23.027Z,11.00
2023-03-26T08:56:55.198Z,11.10
2023-03-26T08:59:51.286Z,11.30
2023-03-26T09:02:48.504Z,11.30
2023-03-26T09:05:54.897Z,11.30
2023-03-26T09:09:19.011Z,11.40
2023-03-26T09:12:26.149Z,11.50
2023-03-26T09:15:32.103Z,11.60
2023-03-26T09:18:24.818Z,11.60
2023-03-26T09:21:43.295Z,11.60
2023-03-26T09:24:27.749Z,11.60
2023-03-26T09:27:08.936Z,11.80
2023-03-26T09:30:15.664Z,11.90
2023-03-26T09:33:18.135Z,12.00
2023-03-26T09:35:53.436Z,12.00
2023-03-26T09:38:46.278Z,12.10
2023-03-26T09:41:18.406Z,12.20
2023-03-26T09:44:14.875Z,12.20
2023-03-26T09:46:55.852Z,12.30
2023-03-26T09:49:45.120Z,12.40
2023-03-26T09:52:27.131Z,12.60
2023-03-26T09:55:11.021Z,12.70
2023-03-26T09:58:02.380Z,12.70
2023-03-26T10:00:37.386Z,12.80
2023-03-26T10:03:40.946Z,12.90
2023-03-26T10:06:23.376Z,12.90
2023-03-26T10:09:03.653Z,12.90
2023-03-26T10:11:41.663Z,12.90
2023-03-26T10:14:20.705Z,12.90
2023-03-26T10:17:01.386Z,13.10
2023-03-26T10:19:46.602Z,13.20
2023-03-26T10:22:28.961Z,13.40
2023-03-26T10:25:23.180Z,13.60
2023-03-26T10:28:02.291Z,13.60
2023-03-26T10:30:46.149Z,13.80
2023-03-26T10:33:25.061Z,13.90
2023-03-26T10:36:03.344Z,13.80
2023-03-26T10:38:50.969Z,13.90
2023-03-26T10:41:28.299Z,14.00
2023-03-26T10:44:15.823Z,14.10
2023-03-26T10:47:15.714Z,14.10
2023-03-26T10:50:01.344Z,14.00
2023-03-26T10:52:35.945Z,13.90
2023-03-26T10:55:14.937Z,13.90
2023-03-26T10:57:46.538Z,13.90
2023-03-26T11:00:18.189Z,13.80
2023-03-26T11:02:57.048Z,13.90
2023-03-26T11:05:44.028Z,13.90
2023-03-26T11:08:19.264Z,13.90
2023-03-26T11:11:07.351Z,13.80
2023-03-26T11:13:45.921Z,13.80
2023-03-26T11:16:19.758Z,13.80
2023-03-26T11:18:55.570Z,13.80
2023-03-26T11:21:29.046Z,13.80
2023-03-26T11:24:13.670Z,13.90
2023-03-26T11:26:53.090Z,13.90
2023-03-26T11:29:36.573Z,13.90
2023-03-26T11:32:07.502Z,14.00
2023-03-26T11:34:41.515Z,14.00
2023-03-26T11:37:16.863Z,14.00
2023-03-26T11:40:02.961Z,14.00
2023-03-26T11:42:31.312Z,14.00
2023-03-26T11:45:03.522Z,14.00
2023-03-26T11:47:36.881Z,14.10
2023-03-26T11:50:09.239Z,14.10
2023-03-26T11:52:37.458Z,14.10
2023-03-26T11:55:06.671Z,14.00
2023-03-26T11:57:38.096Z,14.00
2023-03-26T12:00:16.842Z,13.90
2023-03-26T12:02:46.549Z,14.00
2023-03-26T12:05:20.319Z,14.00
2023-03-26T12:07:53.422Z,14.00
2023-03-26T12:10:32.153Z,14.00
2023-03-26T12:13:02.530Z,14.00
2023-03-26T12:15:32.152Z,14.00
2023-03-26T12:18:18.614Z,13.90
2023-03-26T12:20:48.249Z,13.90
2023-03-26T12:23:36.427Z,13.80
2023-03-26T12:26:15.914Z,13.80
2023-03-26T12:28:48.815Z,13.70
2023-03-26T12:31:19.519Z,13.70
2023-03-26T12:34:06.074Z,13.70
2023-03-26T12:36:36.425Z,13.70
2023-03-26T12:40:08.956Z,13.70
2023-03-26T12:44:51.244Z,13.80
2023-03-26T12:45:16.210Z,13.80
2023-03-26T12:47:58.182Z,13.70
2023-03-26T12:50:36.564Z,13.80
2023-03-26T12:53:20.129Z,13.80
2023-03-26T12:56:00.521Z,13.80
2023-03-26T12:58:48.026Z,13.80
2023-03-26T13:01:25.760Z,13.90
2023-03-26T13:04:13.435Z,13.80
2023-03-26T13:06:59.057Z,13.80
2023-03-26T13:09:58.485Z,13.80
2023-03-26T13:12:35.588Z,13.90
2023-03-26T13:15:26.641Z,13.90
2023-03-26T13:18:07.728Z,13.80
2023-03-26T13:20:50.177Z,13.80
2023-03-26T13:23:30.262Z,13.80
2023-03-26T13:26:11.442Z,13.80
2023-03-26T13:28:47.579Z,13.80
2023-03-26T13:31:23.040Z,13.80
2023-03-26T13:34:00.686Z,13.70
2023-03-26T13:36:37.721Z,13.70
2023-03-26T13:39:18.198Z,13.70
2023-03-26T13:42:19.550Z,13.70
2023-03-26T13:45:05.286Z,13.70
2023-03-26T13:47:37.907Z,13.70
2023-03-26T13:50:15.461Z,13.70
2023-03-26T13:52:51.637Z,13.70
2023-03-26T13:55:27.118Z,13.70
2023-03-26T13:58:03.227Z,13.70
2023-03-26T14:00:47.780Z,13.70
2023-03-26T14:03:24.348Z,13.60
2023-03-26T14:05:56.439Z,13.40
2023-03-26T14:08:32.662Z,13.30
2023-03-26T14:11:10.808Z,13.30
2023-03-26T14:13:47.326Z,13.20
2023-03-26T14:16:20.052Z,13.00
2023-03-26T14:18:54.253Z,12.90
2023-03-26T14:21:49.202Z,13.00
2023-03-26T14:25:05.121Z,13.00
2023-03-26T14:27:52.197Z,12.80
2023-03-26T14:30:59.868Z,12.70
2023-03-26T14:34:03.785Z,12.50
2023-03-26T14:36:52.978Z,12.50
2023-03-26T14:39:51.559Z,12.50
2023-03-26T14:42:24.235Z,12.50
2023-03-26T14:45:34.055Z,12.50
2023-03-26T14:48:26.620Z,12.40
2023-03-26T14:51:08.016Z,12.40
2023-03-26T14:53:40.120Z,12.30
2023-03-26T14:56:38.511Z,12.30
2023-03-26T14:59:37.620Z,12.10
2023-03-26T15:02:54.183Z,12.00
2023-03-26T15:06:02.281Z,11.90
2023-03-26T15:09:13.340Z,12.10
2023-03-26T15:11:47.021Z,12.20
2023-03-26T15:14:51.720Z,12.30
2023-03-26T15:17:47.610Z,12.40
2023-03-26T15:20:56.674Z,12.40
2023-03-26T15:23:47.394Z,12.40
2023-03-26T15:26:53.572Z,12.30
2023-03-26T15:29:49.210Z,12.00
2023-03-26T15:32:57.170Z,11.90
2023-03-26T15:35:53.786Z,11.80
2023-03-26T15:38:55.268Z,11.70
2023-03-26T15:41:30.304Z,11.70
2023-03-26T15:44:22.302Z,11.70
2023-03-26T15:47:00.389Z,11.60
2023-03-26T15:49:39.780Z,11.70
2023-03-26T15:52:23.027Z,11.80
2023-03-26T15:54:59.545Z,11.70
2023-03-26T15:57:34.605Z,11.50
2023-03-26T16:00:22.837Z,11.20
2023-03-26T16:03:09.235Z,11.10
2023-03-26T16:05:47.617Z,10.80
2023-03-26T16:08:25.642Z,10.80
2023-03-26T16:10:57.084Z,10.60
2023-03-26T16:13:38.625Z,10.50
2023-03-26T16:16:26.051Z,10.60
2023-03-26T16:19:19.432Z,10.60
2023-03-26T16:21:56.243Z,10.50
2023-03-26T16:24:28.149Z,10.40
2023-03-26T16:27:07.930Z,10.30
2023-03-26T16:30:09.514Z,10.30
2023-03-26T16:32:41.488Z,10.30
2023-03-26T16:35:39.654Z,10.20
2023-03-26T16:38:12.821Z,10.20
2023-03-26T16:41:00.059Z,10.30
2023-03-26T16:43:59.925Z,10.20
2023-03-26T16:46:37.442Z,10.30
2023-03-26T16:49:17.318Z,10.20
2023-03-26T16:51:57.360Z,10.20
2023-03-26T16:54:36.234Z,10.10
2023-03-26T16:57:17.385Z,10.00
2023-03-26T17:00:07.361Z,10.10
2023-03-26T17:02:54.762Z,10.10
2023-03-26T17:05:34.311Z,10.10
2023-03-26T17:08:13.377Z,10.00
2023-03-26T17:10:47.423Z,9.90
2023-03-26T17:13:24.176Z,9.90
2023-03-26T17:16:02.313Z,9.90
2023-03-26T17:18:42.837Z,9.90
2023-03-26T17:21:16.139Z,9.80
2023-03-26T17:24:03.956Z,9.70
2023-03-26T17:26:44.254Z,9.80
2023-03-26T17:29:28.986Z,9.80
2023-03-26T17:32:04.664Z,9.80
2023-03-26T17:34:46.844Z,9.70
2023-03-26T17:37:43.485Z,9.80
2023-03-26T17:40:54.553Z,9.80
2023-03-26T17:43:42.963Z,9.70
2023-03-26T17:46:23.576Z,9.70
2023-03-26T17:48:58.264Z,9.70
2023-03-26T17:51:40.313Z,9.70
2023-03-26T17:54:14.751Z,9.60
2023-03-26T17:56:43.198Z,9.50
2023-03-26T17:59:23.104Z,9.50
2023-03-26T18:01:55.420Z,9.60
2023-03-26T18:04:31.263Z,9.60
2023-03-26T18:07:44.071Z,9.50
2023-03-26T18:10:33.240Z,9.50
2023-03-26T18:13:15.279Z,9.60
2023-03-26T18:15:51.672Z,9.50
2023-03-26T18:18:23.632Z,9.70
2023-03-26T18:23:26.480Z,10.00
2023-03-26T18:25:59.225Z,9.90
2023-03-26T18:28:35.490Z,9.90
2023-03-26T18:31:11.175Z,9.90
2023-03-26T18:33:44.411Z,9.80
2023-03-26T18:36:13.469Z,9.70
2023-03-26T18:38:42.888Z,9.60
2023-03-26T18:41:20.006Z,9.60
2023-03-26T18:43:48.128Z,9.70
2023-03-26T18:46:17.056Z,9.60
2023-03-26T18:48:47.269Z,9.50
2023-03-26T18:51:22.473Z,9.40
2023-03-26T18:53:55.044Z,9.30
2023-03-26T18:56:33.682Z,9.40
2023-03-26T18:59:04.191Z,9.40
2023-03-26T19:01:34.128Z,9.40
2023-03-26T19:04:05.492Z,9.40
2023-03-26T19:06:38.284Z,9.40
2023-03-26T19:09:23.908Z,9.40
2023-03-26T19:12:06.789Z,9.30
2023-03-26T19:14:37.146Z,9.30
2023-03-26T19:17:07.810Z,9.40
2023-03-26T19:19:38.201Z,9.50
2023-03-26T19:22:07.130Z,9.40
2023-03-26T19:24:36.305Z,9.40
2023-03-26T19:27:06.428Z,9.50
2023-03-26T19:29:36.223Z,9.50
2023-03-26T19:32:06.327Z,9.50
2023-03-26T19:34:35.968Z,9.60
2023-03-26T19:37:17.236Z,9.40
2023-03-26T19:39:47.680Z,9.50
2023-03-26T19:42:20.558Z,9.70
2023-03-26T19:44:51.196Z,9.90
2023-03-26T19:47:29.086Z,10.00
2023-03-26T19:50:23.342Z,10.10
2023-03-26T19:53:15.423Z,10.20
2023-03-26T19:55:54.456Z,10.20
2023-03-26T19:58:24.032Z,9.80
2023-03-26T20:00:52.017Z,10.00
2023-03-26T20:03:26.633Z,10.10
2023-03-26T20:05:54.722Z,10.20
2023-03-26T20:08:27.127Z,10.00
2023-03-26T20:10:56.680Z,9.70
2023-03-26T20:13:26.223Z,9.40
2023-03-26T20:16:05.975Z,9.50
2023-03-26T20:18:34.565Z,9.50
2023-03-26T20:21:02.670Z,9.60
2023-03-26T20:23:30.657Z,9.70
2023-03-26T20:25:58.839Z,9.70
2023-03-26T20:28:28.151Z,9.70
2023-03-26T20:30:56.256Z,9.60
2023-03-26T20:33:26.816Z,9.60
2023-03-26T20:35:55.799Z,9.30
2023-03-26T20:38:36.662Z,9.40
2023-03-26T20:41:07.260Z,9.50
2023-03-26T20:43:36.681Z,9.50
2023-03-26T20:46:05.025Z,9.60
2023-03-26T20:48:33.062Z,9.70
2023-03-26T20:51:01.727Z,9.80
2023-03-26T20:53:30.449Z,9.90
2023-03-26T20:55:58.708Z,10.00
2023-03-26T20:58:31.497Z,9.90
2023-03-26T21:01:02.909Z,9.80
2023-03-26T21:03:31.052Z,9.70
2023-03-26T21:06:02.064Z,9.60
2023-03-26T21:08:35.395Z,9.50
2023-03-26T21:11:05.523Z,9.50
2023-03-26T21:13:38.968Z,9.60
2023-03-26T21:16:11.047Z,9.70
2023-03-26T21:18:39.763Z,9.80
2023-03-26T21:21:23.348Z,9.90
2023-03-26T21:23:59.333Z,10.00
2023-03-26T21:26:33.624Z,10.10
2023-03-26T21:29:09.652Z,10.10
2023-03-26T21:31:39.812Z,10.10
2023-03-26T21:34:09.706Z,10.10
2023-03-26T21:36:38.389Z,10.10
2023-03-26T21:39:07.229Z,10.10
2023-03-26T21:41:47.913Z,10.20
2023-03-26T21:44:16.537Z,10.10
2023-03-26T21:46:47.780Z,9.90
2023-03-26T21:49:18.234Z,9.80
2023-03-26T21:51:47.194Z,9.90
2023-03-26T21:54:26.229Z,10.10
2023-03-26T21:57:22.872Z,10.10
2023-03-26T22:00:02.482Z,10.10
2023-03-26T22:02:41.214Z,10.20
2023-03-26T22:05:15.995Z,10.10
2023-03-26T22:07:53.969Z,10.10
2023-03-26T22:10:22.152Z,9.90
2023-03-26T22:12:50.410Z,9.70
2023-03-26T22:15:19.259Z,9.70
2023-03-26T22:17:54.183Z,9.80
2023-03-26T22:20:25.221Z,9.80
2023-03-26T22:22:55.291Z,9.90
2023-03-26T22:25:24.982Z,10.00
2023-03-26T22:27:53.921Z,10.00
2023-03-26T22:30:21.978Z,9.80
2023-03-26T22:32:51.777Z,9.70
2023-03-26T22:35:20.382Z,9.80
2023-03-26T22:37:49.076Z,9.90
2023-03-26T22:40:17.913Z,9.90
2023-03-26T22:42:45.992Z,9.90
2023-03-26T22:45:14.273Z,9.90
2023-03-26T22:47:42.397Z,9.90
2023-03-26T22:50:12.232Z,9.90
2023-03-26T22:52:41.575Z,9.80
2023-03-26T22:55:11.904Z,9.90
2023-03-26T22:57:39.898Z,9.80
2023-03-26T23:00:16.215Z,9.70
2023-03-26T23:02:45.887Z,9.60
2023-03-26T23:05:17.492Z,9.60
2023-03-26T23:07:46.333Z,9.50
2023-03-26T23:10:14.656Z,9.60
2023-03-26T23:12:42.605Z,9.50
2023-03-26T23:15:11.602Z,9.30
2023-03-26T23:17:39.670Z,9.20
2023-03-26T23:20:14.902Z,9.40
2023-03-26T23:22:45.136Z,9.40
2023-03-26T23:25:13.075Z,9.30
2023-03-26T23:27:41.599Z,9.20
2023-03-26T23:30:11.834Z,9.20
2023-03-26T23:32:40.731Z,9.20
2023-03-26T23:35:09.380Z,9.20
2023-03-26T23:37:37.396Z,9.30
2023-03-26T23:40:10.278Z,9.30
2023-03-26T23:42:38.539Z,9.40
2023-03-26T23:45:08.555Z,9.40
2023-03-26T23:47:37.317Z,9.50
2023-03-26T23:50:06.411Z,9.50
2023-03-26T23:52:34.418Z,9.20
2023-03-26T23:55:02.592Z,9.00
2023-03-26T23:57:31.928Z,9.10
2023-03-26T23:59:59.977Z,9.20
